Time;durP1;ratioP1;P1;durP2;ratioP2;P2;SDS_P1;SDS_P2;PMS_P1;PMS_P2;Temp;Humidity;BMP_temperature;BMP_pressure;BME280_temperature;BME280_humidity;BME280_pressure;Samples;Min_cycle;Max_cycle;Signal;HPM_P1;HPM_P2
2021/08/17 00:01:12;;;;;;;5.82;3.20;;;;;;;24.06;57.76;99359.66;5012778;28;20042;-88
2021/08/17 00:03:39;;;;;;;14.30;3.60;;;;;;;24.11;57.50;99361.75;5013076;28;20470;-88
2021/08/17 00:06:07;;;;;;;10.15;3.30;;;;;;;24.01;57.19;99362.84;5028160;28;20096;-86
2021/08/17 00:08:34;;;;;;;10.07;3.83;;;;;;;24.05;57.03;99363.31;5012828;28;20045;-86
2021/08/17 00:11:06;;;;;;;4.38;3.22;;;;;;;23.93;56.60;99362.16;5012931;28;20042;-87
2021/08/17 00:13:33;;;;;;;9.00;3.90;;;;;;;23.89;56.00;99358.19;5012889;28;20042;-87
2021/08/17 00:15:59;;;;;;;6.93;3.10;;;;;;;23.90;55.20;99355.34;5012201;28;20045;-87
2021/08/17 00:18:26;;;;;;;5.18;2.45;;;;;;;23.99;54.35;99356.91;5012950;28;20048;-86
2021/08/17 00:20:53;;;;;;;17.17;3.55;;;;;;;23.92;54.11;99361.31;5012623;28;20038;-87
2021/08/17 00:23:20;;;;;;;8.63;3.47;;;;;;;23.79;54.08;99361.13;5012765;28;20481;-86
2021/08/17 00:25:46;;;;;;;7.97;2.75;;;;;;;24.01;53.69;99354.88;5009144;28;20042;-85
2021/08/17 00:28:13;;;;;;;7.38;2.85;;;;;;;23.97;53.47;99356.28;5007330;28;20391;-86
2021/08/17 00:30:40;;;;;;;11.18;3.45;;;;;;;23.67;54.11;99354.63;5008438;28;20042;-87
2021/08/17 00:33:07;;;;;;;8.63;2.30;;;;;;;23.68;54.07;99350.94;5011548;28;20057;-87
2021/08/17 00:35:36;;;;;;;6.90;2.95;;;;;;;23.64;54.00;99358.44;5011312;28;20034;-87
2021/08/17 00:38:04;;;;;;;6.45;3.33;;;;;;;23.51;53.81;99351.06;5003101;28;20045;-86
2021/08/17 00:40:32;;;;;;;3.83;2.40;;;;;;;23.62;52.74;99365.78;5004529;28;20488;-87
2021/08/17 00:42:59;;;;;;;9.85;2.78;;;;;;;23.41;52.69;99355.84;5006967;28;20108;-87
2021/08/17 00:45:30;;;;;;;3.92;2.40;;;;;;;23.63;52.22;99358.63;5009486;28;20440;-88
2021/08/17 00:47:57;;;;;;;10.60;2.20;;;;;;;23.62;51.73;99362.28;5009915;28;20041;-87
2021/08/17 00:50:26;;;;;;;8.70;2.28;;;;;;;23.72;51.15;99357.56;5009648;28;20045;-87
2021/08/17 00:52:54;;;;;;;5.78;2.08;;;;;;;23.63;50.61;99363.97;5011629;28;20042;-87
2021/08/17 00:55:21;;;;;;;6.15;2.10;;;;;;;23.78;50.67;99346.19;5000782;28;20477;-87
2021/08/17 00:57:48;;;;;;;3.75;1.73;;;;;;;23.66;50.36;99348.47;5005611;28;20073;-87
2021/08/17 01:00:16;;;;;;;8.10;2.25;;;;;;;23.58;50.12;99353.84;5006780;28;20114;-86
2021/08/17 01:02:44;;;;;;;6.43;1.92;;;;;;;23.55;49.77;99356.06;5009004;28;20056;-86
2021/08/17 01:05:12;;;;;;;5.47;1.60;;;;;;;23.54;49.58;99349.88;5008240;28;20038;-87
2021/08/17 01:07:40;;;;;;;4.32;1.90;;;;;;;23.45;49.48;99354.47;5012138;28;20420;-86
2021/08/17 01:10:09;;;;;;;4.45;1.70;;;;;;;23.51;49.08;99356.41;5011633;28;20034;-86
2021/08/17 01:12:39;;;;;;;7.75;1.83;;;;;;;23.31;49.60;99362.41;5011549;28;20069;-87
2021/08/17 01:15:07;;;;;;;3.50;1.80;;;;;;;23.47;49.76;99356.94;5015368;28;20497;-87
2021/08/17 01:17:34;;;;;;;10.75;2.05;;;;;;;23.74;48.66;99360.84;5016108;28;20046;-87
2021/08/17 01:20:01;;;;;;;3.60;1.75;;;;;;;23.44;49.25;99368.78;5008353;28;20053;-86
2021/08/17 01:22:27;;;;;;;3.83;1.77;;;;;;;23.74;48.62;99366.16;5015392;28;20228;-87
2021/08/17 01:24:55;;;;;;;2.85;1.70;;;;;;;23.59;48.94;99373.28;5016006;28;20386;-87
2021/08/17 01:27:22;;;;;;;5.68;1.70;;;;;;;23.46;49.03;99374.72;5014252;28;20041;-87
2021/08/17 01:29:48;;;;;;;6.35;1.60;;;;;;;23.41;49.14;99374.44;5015087;28;20554;-86
2021/08/17 01:32:18;;;;;;;3.63;1.85;;;;;;;23.15;49.70;99376.66;5015496;28;20058;-86
2021/08/17 01:34:45;;;;;;;8.70;2.00;;;;;;;23.13;50.28;99362.75;5015426;28;20073;-87
2021/08/17 01:37:11;;;;;;;8.18;2.08;;;;;;;23.05;50.34;99374.25;5014948;28;20554;-86
2021/08/17 01:39:38;;;;;;;11.18;2.08;;;;;;;22.93;51.02;99381.81;5015366;28;20073;-88
2021/08/17 01:42:06;;;;;;;6.80;2.28;;;;;;;22.98;51.16;99373.31;5015237;28;20111;-88
2021/08/17 01:44:33;;;;;;;2.58;1.50;;;;;;;22.95;49.94;99381.63;5015178;28;20069;-87
2021/08/17 01:47:00;;;;;;;2.17;1.42;;;;;;;23.09;49.65;99385.38;5015203;28;20042;-87
2021/08/17 01:49:26;;;;;;;4.63;1.83;;;;;;;22.98;50.13;99382.13;5015504;28;20097;-88
2021/08/17 01:51:53;;;;;;;1.85;1.50;;;;;;;23.07;50.08;99377.56;5015716;28;20492;-87
2021/08/17 01:54:20;;;;;;;2.63;1.40;;;;;;;22.82;50.59;99382.19;5015105;28;20400;-86
2021/08/17 01:56:47;;;;;;;8.18;1.52;;;;;;;22.91;50.08;99391.00;5014301;28;20080;-86
2021/08/17 01:59:15;;;;;;;4.03;1.42;;;;;;;22.73;50.63;99396.53;5014835;28;20041;-86
2021/08/17 02:01:43;;;;;;;2.35;1.30;;;;;;;22.80;49.90;99394.84;5015370;28;20508;-86
2021/08/17 02:04:10;;;;;;;1.70;1.45;;;;;;;22.92;50.37;99397.94;5014902;28;20124;-86
2021/08/17 02:06:37;;;;;;;1.85;1.70;;;;;;;22.87;48.52;99398.44;5015014;28;20073;-86
2021/08/17 02:09:04;;;;;;;5.28;1.20;;;;;;;23.14;46.35;99393.63;5014871;28;20049;-88
2021/08/17 02:11:30;;;;;;;5.38;1.45;;;;;;;23.03;46.09;99397.53;5014791;28;20069;-88
2021/08/17 02:13:57;;;;;;;1.40;0.98;;;;;;;23.14;44.88;99394.44;5014902;28;20053;-89
2021/08/17 02:16:24;;;;;;;2.67;1.30;;;;;;;23.24;44.21;99391.56;5014125;28;20099;-88
2021/08/17 02:18:51;;;;;;;1.10;0.90;;;;;;;23.02;44.18;99387.91;5014692;28;20052;-88
2021/08/17 02:21:17;;;;;;;1.65;0.82;;;;;;;23.07;44.00;99390.88;5014696;28;20463;-87
2021/08/17 02:23:44;;;;;;;4.30;1.60;;;;;;;23.10;43.55;99400.31;5014581;28;20057;-87
2021/08/17 02:26:11;;;;;;;3.42;1.33;;;;;;;23.17;43.67;99391.47;5014186;28;20057;-89
2021/08/17 02:28:37;;;;;;;6.63;1.00;;;;;;;23.14;43.68;99397.13;5014541;28;20069;-90
2021/08/17 02:31:04;;;;;;;1.33;0.70;;;;;;;23.18;43.75;99402.91;5014404;28;20046;-89
2021/08/17 02:33:31;;;;;;;8.88;1.40;;;;;;;23.16;44.09;99402.25;5002415;28;20057;-91
2021/08/17 02:35:58;;;;;;;8.18;1.88;;;;;;;22.81;44.06;99409.78;5014481;28;20528;-91
2021/08/17 02:38:24;;;;;;;1.90;0.75;;;;;;;22.83;44.58;99409.59;5008235;28;20039;-90
2021/08/17 02:40:51;;;;;;;1.60;0.82;;;;;;;22.89;44.06;99419.53;5004137;28;20049;-91
2021/08/17 02:43:23;;;;;;;2.72;1.00;;;;;;;23.15;44.40;99419.19;5014903;28;20053;-90
2021/08/17 02:45:55;;;;;;;1.35;0.80;;;;;;;23.25;44.39;99406.50;5011944;28;20042;-87
2021/08/17 02:48:22;;;;;;;2.72;1.10;;;;;;;23.01;44.86;99412.84;4993979;28;20050;-88
2021/08/17 02:50:49;;;;;;;1.70;1.08;;;;;;;23.27;44.67;99423.09;5013005;28;20042;-88
2021/08/17 02:53:16;;;;;;;2.28;1.00;;;;;;;22.81;45.84;99424.91;5029180;28;20111;-89
2021/08/17 02:55:43;;;;;;;4.55;1.02;;;;;;;23.16;45.25;99420.84;5014465;28;20045;-88
2021/08/17 02:58:09;;;;;;;2.78;1.27;;;;;;;22.74;46.24;99425.59;4995708;28;20050;-87
2021/08/17 03:00:39;;;;;;;3.10;1.55;;;;;;;22.48;46.61;99427.72;5004469;28;20132;-87
2021/08/17 03:03:07;;;;;;;1.25;0.93;;;;;;;22.64;46.24;99426.81;5013605;28;20133;-88
2021/08/17 03:05:34;;;;;;;4.53;0.98;;;;;;;22.64;46.78;99427.66;4995622;28;20053;-88
2021/08/17 03:08:03;;;;;;;4.50;1.10;;;;;;;22.58;46.19;99430.97;4996297;28;20049;-86
2021/08/17 03:10:34;;;;;;;1.42;0.95;;;;;;;22.49;46.30;99434.69;5013968;28;20050;-87
2021/08/17 03:13:02;;;;;;;2.67;1.15;;;;;;;22.66;46.26;99435.44;5013451;28;20077;-87
2021/08/17 03:15:32;;;;;;;3.05;1.10;;;;;;;22.77;46.46;99439.53;5013436;28;20045;-87
2021/08/17 03:18:05;;;;;;;0.90;0.88;;;;;;;22.59;46.57;99440.63;5013535;28;20042;-88
2021/08/17 03:20:33;;;;;;;3.22;1.20;;;;;;;22.70;46.71;99450.03;5013377;28;20053;-88
2021/08/17 03:23:01;;;;;;;0.90;0.70;;;;;;;22.18;47.46;99448.72;5014196;28;20042;-90
2021/08/17 03:25:27;;;;;;;1.42;1.00;;;;;;;22.17;48.27;99449.75;5013512;28;20050;-91
2021/08/17 03:27:56;;;;;;;1.23;1.13;;;;;;;22.21;48.21;99453.72;5013844;28;20096;-94
2021/08/17 03:30:25;;;;;;;2.85;1.55;;;;;;;22.22;47.38;99454.53;5012693;28;20547;-90
2021/08/17 03:32:53;;;;;;;3.88;1.45;;;;;;;22.06;48.13;99454.56;5013557;28;20050;-89
2021/08/17 03:35:21;;;;;;;2.42;0.98;;;;;;;21.87;48.56;99464.53;5013631;28;20099;-90
2021/08/17 03:37:48;;;;;;;1.02;0.95;;;;;;;22.24;48.33;99465.81;4998244;28;20047;-90
2021/08/17 03:40:18;;;;;;;2.47;1.98;;;;;;;22.26;47.90;99470.94;4993878;28;20045;-90
2021/08/17 03:42:46;;;;;;;2.95;1.20;;;;;;;22.63;47.15;99478.25;4993777;28;20043;-89
2021/08/17 03:45:15;;;;;;;5.50;1.52;;;;;;;22.12;48.41;99477.78;4998053;28;20505;-87
2021/08/17 03:47:42;;;;;;;5.55;1.17;;;;;;;22.55;48.19;99480.97;4993196;28;20101;-87
2021/08/17 03:50:11;;;;;;;3.35;1.35;;;;;;;22.70;47.90;99487.22;5013527;28;20452;-88
2021/08/17 03:52:39;;;;;;;2.03;1.20;;;;;;;21.90;49.29;99481.94;5013092;28;20053;-88
2021/08/17 03:55:07;;;;;;;1.85;1.20;;;;;;;22.04;49.39;99483.06;4995677;28;20089;-87
2021/08/17 03:57:34;;;;;;;2.17;1.77;;;;;;;22.50;48.41;99489.44;4993150;28;20096;-86
2021/08/17 04:00:03;;;;;;;3.03;1.30;;;;;;;22.21;48.94;99485.56;4977247;28;20100;-88
2021/08/17 04:02:37;;;;;;;2.53;1.17;;;;;;;22.37;49.35;99492.66;4993085;28;20050;-88
2021/08/17 04:05:06;;;;;;;1.48;1.20;;;;;;;22.13;49.26;99498.03;5008981;28;20559;-89
2021/08/17 04:07:32;;;;;;;1.63;1.50;;;;;;;22.14;49.52;99502.31;5013238;28;20049;-89
2021/08/17 04:10:00;;;;;;;4.28;1.38;;;;;;;22.26;48.85;99493.00;5012688;28;20547;-86
2021/08/17 04:12:26;;;;;;;1.98;1.35;;;;;;;22.39;48.84;99495.97;5012831;28;20145;-86
2021/08/17 04:14:53;;;;;;;1.95;1.33;;;;;;;22.34;49.03;99503.59;5012168;28;20386;-87
2021/08/17 04:17:20;;;;;;;2.92;1.17;;;;;;;22.84;47.97;99496.28;5012900;28;20099;-87
2021/08/17 04:19:47;;;;;;;4.80;1.48;;;;;;;22.72;47.09;99499.31;5012683;28;20423;-87
2021/08/17 04:22:13;;;;;;;10.52;2.60;;;;;;;23.03;46.57;99505.69;5012697;28;20073;-87
2021/08/17 04:24:40;;;;;;;2.58;1.65;;;;;;;22.78;46.61;99512.91;5012485;28;20080;-87
2021/08/17 04:27:07;;;;;;;4.47;1.58;;;;;;;22.92;46.88;99510.38;5012552;28;20054;-87
2021/08/17 04:29:34;;;;;;;2.35;1.20;;;;;;;22.67;47.76;99511.47;5012279;28;20038;-85
2021/08/17 04:32:00;;;;;;;4.78;1.15;;;;;;;22.83;47.57;99514.03;5012553;28;20392;-83
2021/08/17 04:34:27;;;;;;;7.43;1.10;;;;;;;23.05;46.79;99514.31;5012506;28;20096;-83
2021/08/17 04:36:54;;;;;;;6.97;1.35;;;;;;;23.14;45.79;99519.41;5011667;28;20041;-86
2021/08/17 04:39:21;;;;;;;5.00;1.50;;;;;;;23.16;46.29;99521.88;5007309;28;20038;-85
2021/08/17 04:41:47;;;;;;;3.72;2.55;;;;;;;22.15;49.21;99525.22;5010460;28;20046;-84
2021/08/17 04:44:14;;;;;;;2.33;1.60;;;;;;;23.35;46.45;99525.94;5015501;28;20065;-82
2021/08/17 04:46:41;;;;;;;2.47;1.58;;;;;;;22.94;47.07;99532.28;5015391;28;20038;-83
2021/08/17 04:49:08;;;;;;;4.70;1.67;;;;;;;22.94;47.17;99526.16;5016072;28;20042;-83
2021/08/17 04:51:35;;;;;;;11.18;3.53;;;;;;;23.50;46.29;99534.81;5014420;28;20042;-83
2021/08/17 04:54:03;;;;;;;7.72;3.08;;;;;;;23.33;46.90;99528.78;5015942;28;20050;-81
2021/08/17 04:56:30;;;;;;;4.22;1.65;;;;;;;22.99;48.26;99537.91;5015240;28;20538;-79
2021/08/17 04:58:57;;;;;;;7.00;2.13;;;;;;;23.21;48.02;99536.28;5030941;28;20092;-79
2021/08/17 05:01:23;;;;;;;5.75;1.95;;;;;;;23.44;47.81;99544.31;5015783;28;20065;-79
2021/08/17 05:03:50;;;;;;;11.18;2.78;;;;;;;23.50;47.62;99543.59;5015031;28;20045;-79
2021/08/17 05:06:17;;;;;;;10.80;1.70;;;;;;;23.51;48.00;99545.25;5015626;28;20088;-80
2021/08/17 05:08:44;;;;;;;11.00;2.17;;;;;;;23.73;47.33;99540.97;5015481;28;20041;-81
2021/08/17 05:11:11;;;;;;;6.35;2.22;;;;;;;23.91;46.72;99543.31;5015495;28;20042;-80
2021/08/17 05:13:37;;;;;;;19.52;2.20;;;;;;;23.93;46.62;99536.00;5014642;28;20088;-79
2021/08/17 05:16:04;;;;;;;6.68;2.55;;;;;;;24.21;46.09;99543.38;5015024;28;20045;-79
2021/08/17 05:18:32;;;;;;;4.30;2.10;;;;;;;24.19;46.18;99542.75;5015414;28;20039;-80
2021/08/17 05:21:00;;;;;;;3.78;2.05;;;;;;;24.27;46.46;99543.47;5012912;28;20538;-84
2021/08/17 05:23:28;;;;;;;4.10;2.25;;;;;;;24.34;46.22;99545.41;5014530;28;20069;-81
2021/08/17 05:25:55;;;;;;;2.95;2.45;;;;;;;24.53;45.73;99543.06;5014722;28;20088;-86
2021/08/17 05:28:23;;;;;;;2.30;1.33;;;;;;;24.95;44.92;99541.56;5013206;28;20460;-85
2021/08/17 05:30:49;;;;;;;6.22;2.88;;;;;;;24.66;45.14;99549.56;5010459;28;20572;-85
2021/08/17 05:33:16;;;;;;;5.40;2.50;;;;;;;24.94;44.99;99550.59;5012932;28;20065;-88
2021/08/17 05:35:43;;;;;;;1.90;1.73;;;;;;;24.96;44.59;99553.88;5013021;28;20485;-85
2021/08/17 05:38:11;;;;;;;5.32;1.50;;;;;;;24.89;44.06;99552.97;5014342;28;20042;-91
2021/08/17 05:40:38;;;;;;;14.65;2.92;;;;;;;24.89;44.33;99563.63;5018444;28;20447;-95
2021/08/17 05:43:09;;;;;;;4.47;2.10;;;;;;;24.96;44.24;99566.38;5016762;28;20100;-96
2021/08/17 05:45:56;;;;;;;5.00;1.88;;;;;;;25.19;43.89;99568.94;5007375;28;20121;-96
2021/08/17 05:48:24;;;;;;;7.68;2.20;;;;;;;25.29;43.20;99575.63;5029729;28;20038;-94
2021/08/17 05:50:51;;;;;;;2.97;1.67;;;;;;;25.27;42.48;99577.66;5013646;28;20069;-89
2021/08/17 05:53:18;;;;;;;2.95;1.98;;;;;;;25.28;42.51;99583.81;5014073;28;20092;-93
2021/08/17 05:55:44;;;;;;;4.78;1.77;;;;;;;25.23;42.25;99575.56;5015901;28;20576;-91
2021/08/17 05:58:12;;;;;;;8.20;2.10;;;;;;;25.39;42.01;99577.16;5015230;28;20069;-91
2021/08/17 06:00:39;;;;;;;10.40;2.45;;;;;;;25.36;41.52;99567.72;5015361;28;20046;-91
2021/08/17 06:03:06;;;;;;;2.15;1.70;;;;;;;25.53;40.81;99565.63;5015962;28;20038;-90
2021/08/17 06:05:33;;;;;;;3.42;1.70;;;;;;;25.56;40.17;99570.56;5015901;28;20042;-89
2021/08/17 06:07:59;;;;;;;5.63;2.90;;;;;;;25.47;39.95;99572.56;5014764;28;20041;-90
2021/08/17 06:10:26;;;;;;;6.57;2.83;;;;;;;25.55;39.20;99575.09;5015317;28;20096;-90
2021/08/17 06:12:53;;;;;;;2.28;2.05;;;;;;;25.47;39.45;99579.75;5015123;28;20046;-90
2021/08/17 06:15:20;;;;;;;3.13;2.22;;;;;;;25.30;38.77;99582.63;5015488;28;20049;-92
2021/08/17 06:17:47;;;;;;;5.53;2.50;;;;;;;25.39;38.46;99580.66;5015462;28;20046;-91
2021/08/17 06:20:15;;;;;;;3.63;2.20;;;;;;;25.55;38.72;99582.28;5015718;28;20045;-91
2021/08/17 06:22:44;;;;;;;5.43;1.92;;;;;;;25.65;38.75;99582.78;5015604;28;20069;-94
2021/08/17 06:25:11;;;;;;;8.52;2.10;;;;;;;25.70;38.84;99592.91;5016040;28;20523;-92
2021/08/17 06:27:37;;;;;;;4.50;3.22;;;;;;;25.80;38.47;99590.78;5019496;28;20065;-94
2021/08/17 06:30:05;;;;;;;7.20;2.53;;;;;;;25.57;37.12;99598.94;5016713;28;20447;-93
2021/08/17 06:32:51;;;;;;;5.05;1.65;;;;;;;25.55;36.48;99598.28;5015200;28;20042;-93
2021/08/17 06:35:18;;;;;;;4.00;2.47;;;;;;;25.67;36.77;99593.25;5015023;28;20176;-92
2021/08/17 06:37:45;;;;;;;4.47;2.42;;;;;;;25.88;36.81;99595.13;5014884;28;20088;-92
2021/08/17 06:40:13;;;;;;;5.68;2.78;;;;;;;25.93;37.00;99598.88;5014295;28;20033;-93
2021/08/17 06:42:40;;;;;;;4.65;2.92;;;;;;;25.46;37.67;99604.75;5014841;28;20038;-92
2021/08/17 06:45:07;;;;;;;6.43;2.80;;;;;;;25.89;37.64;99597.66;5015344;28;20050;-93
2021/08/17 06:47:34;;;;;;;4.93;2.42;;;;;;;25.92;37.72;99602.59;5013328;28;20827;-90
2021/08/17 06:50:01;;;;;;;6.95;2.08;;;;;;;25.95;37.69;99610.22;5004461;28;20052;-86
2021/08/17 06:52:28;;;;;;;8.25;2.90;;;;;;;25.76;37.71;99608.19;5009431;28;20681;-91
2021/08/17 06:54:55;;;;;;;4.25;2.92;;;;;;;25.28;38.43;99608.66;5012322;28;20046;-86
2021/08/17 06:57:22;;;;;;;7.68;2.60;;;;;;;25.55;39.19;99616.97;5009571;28;20077;-93
2021/08/17 06:59:49;;;;;;;6.68;2.95;;;;;;;25.76;38.96;99613.53;5005517;28;20042;-90
2021/08/17 07:02:16;;;;;;;3.00;2.67;;;;;;;25.95;39.19;99623.56;5006816;28;20038;-85
2021/08/17 07:04:43;;;;;;;5.28;2.55;;;;;;;25.97;39.30;99624.19;5008645;28;20471;-86
2021/08/17 07:07:09;;;;;;;7.22;2.65;;;;;;;25.47;38.84;99617.91;5008650;28;20064;-85
2021/08/17 07:09:36;;;;;;;3.15;2.25;;;;;;;25.76;40.06;99624.19;5006854;28;20038;-89
2021/08/17 07:12:03;;;;;;;4.32;2.40;;;;;;;25.73;39.65;99629.91;5006843;28;20084;-89
2021/08/17 07:14:30;;;;;;;4.88;2.97;;;;;;;25.77;39.21;99632.00;5011985;28;20108;-87
2021/08/17 07:16:57;;;;;;;6.53;3.00;;;;;;;25.72;38.87;99639.72;5011032;28;20073;-88
2021/08/17 07:19:24;;;;;;;5.22;2.42;;;;;;;25.64;39.16;99641.69;5010929;28;20483;-89
2021/08/17 07:21:51;;;;;;;7.43;2.60;;;;;;;25.57;39.41;99631.78;5013309;28;20088;-87
2021/08/17 07:24:18;;;;;;;4.50;2.42;;;;;;;25.41;40.17;99640.03;5010343;28;20145;-88
2021/08/17 07:26:45;;;;;;;9.20;2.58;;;;;;;25.46;41.50;99650.09;5011868;28;20045;-85
2021/08/17 07:29:12;;;;;;;2.70;2.08;;;;;;;25.38;40.96;99647.56;5011947;28;20050;-89
2021/08/17 07:31:39;;;;;;;7.80;2.78;;;;;;;25.46;41.11;99656.28;5011852;28;20069;-85
2021/08/17 07:34:06;;;;;;;8.02;2.42;;;;;;;25.69;40.59;99649.97;5011534;28;20188;-84
2021/08/17 07:36:35;;;;;;;5.40;2.22;;;;;;;25.65;41.22;99648.69;5011742;28;20088;-84
2021/08/17 07:39:04;;;;;;;4.70;2.88;;;;;;;25.70;40.60;99659.63;5011330;28;20519;-91
2021/08/17 07:41:31;;;;;;;4.95;2.42;;;;;;;25.39;40.62;99655.38;5010325;28;20069;-84
2021/08/17 07:43:58;;;;;;;3.55;2.28;;;;;;;25.53;40.71;99656.38;5011677;28;20038;-80
2021/08/17 07:46:25;;;;;;;5.78;2.28;;;;;;;25.26;40.91;99647.22;5011008;28;20054;-82
2021/08/17 07:48:52;;;;;;;8.07;3.17;;;;;;;25.47;40.48;99660.59;5010642;28;20073;-83
2021/08/17 07:51:20;;;;;;;4.90;2.70;;;;;;;25.57;40.38;99653.13;5010563;28;20564;-81
2021/08/17 07:53:46;;;;;;;4.53;2.40;;;;;;;25.63;40.53;99650.72;5011653;28;20065;-83
2021/08/17 07:56:13;;;;;;;5.53;3.20;;;;;;;25.34;41.54;99653.25;5010878;28;20037;-83
2021/08/17 07:58:40;;;;;;;5.78;3.30;;;;;;;25.54;41.42;99664.19;5010131;28;20043;-81
2021/08/17 08:01:10;;;;;;;7.32;3.38;;;;;;;25.48;42.25;99659.59;5013675;28;20054;-80
2021/08/17 08:03:39;;;;;;;11.75;3.00;;;;;;;25.98;41.41;99663.22;5029659;28;20558;-78
2021/08/17 08:06:08;;;;;;;17.38;3.50;;;;;;;25.79;41.20;99658.53;5005296;28;20034;-81
2021/08/17 08:08:36;;;;;;;7.80;3.75;;;;;;;25.75;40.67;99665.25;5010220;28;20041;-81
2021/08/17 08:11:03;;;;;;;9.23;3.20;;;;;;;25.67;40.30;99666.16;5010594;28;20038;-82
2021/08/17 08:13:30;;;;;;;12.15;3.03;;;;;;;25.94;39.53;99677.16;5009976;28;20042;-81
2021/08/17 08:15:57;;;;;;;7.95;3.22;;;;;;;25.91;39.01;99665.03;5007229;28;20053;-81
2021/08/17 08:18:26;;;;;;;6.15;3.28;;;;;;;26.01;38.24;99676.22;5008962;28;20037;-85
2021/08/17 08:20:53;;;;;;;5.60;2.95;;;;;;;25.75;38.58;99667.94;5009705;28;20374;-85
2021/08/17 08:23:20;;;;;;;6.07;2.85;;;;;;;25.98;38.64;99670.41;5009485;28;20049;-83
2021/08/17 08:25:47;;;;;;;6.05;3.05;;;;;;;26.02;38.32;99667.19;5009905;28;21663;-85
2021/08/17 08:28:13;;;;;;;10.70;3.28;;;;;;;25.94;37.77;99669.13;5007170;28;20034;-82
2021/08/17 08:30:40;;;;;;;7.50;2.83;;;;;;;26.02;37.63;99675.19;5009133;28;20042;-82
2021/08/17 08:33:07;;;;;;;5.20;2.90;;;;;;;26.07;37.15;99679.97;5011072;28;20042;-82
2021/08/17 08:35:35;;;;;;;4.72;2.58;;;;;;;25.99;37.24;99675.56;5008245;28;20046;-83
2021/08/17 08:38:02;;;;;;;5.22;3.40;;;;;;;26.13;35.85;99674.69;5007696;28;20381;-83
2021/08/17 08:40:30;;;;;;;4.25;2.78;;;;;;;26.43;35.72;99679.91;5008408;28;20563;-84
2021/08/17 08:42:56;;;;;;;5.78;3.00;;;;;;;26.33;35.62;99668.69;5009732;28;21001;-87
2021/08/17 08:45:25;;;;;;;5.90;3.17;;;;;;;26.27;34.60;99675.66;5009939;28;20049;-87
2021/08/17 08:47:51;;;;;;;6.00;3.05;;;;;;;26.47;34.65;99689.19;5008831;28;20065;-89
2021/08/17 08:50:19;;;;;;;4.90;2.83;;;;;;;26.37;34.17;99694.03;5005576;28;20046;-84
2021/08/17 08:52:46;;;;;;;5.15;3.17;;;;;;;26.38;34.67;99693.81;5007987;28;20050;-85
2021/08/17 08:55:13;;;;;;;3.58;2.60;;;;;;;26.31;34.31;99686.75;5008529;28;20129;-85
2021/08/17 08:57:41;;;;;;;6.95;2.75;;;;;;;26.41;34.03;99694.44;5009481;28;20038;-85
2021/08/17 09:00:09;;;;;;;6.63;2.90;;;;;;;26.72;34.32;99696.78;5010017;28;20046;-83
2021/08/17 09:02:36;;;;;;;4.47;2.45;;;;;;;26.52;34.12;99699.28;5009926;28;20411;-84
2021/08/17 09:05:04;;;;;;;4.57;2.05;;;;;;;26.56;34.06;99701.41;5009863;28;20054;-81
2021/08/17 09:07:47;;;;;;;11.85;2.45;;;;;;;26.53;34.26;99701.81;5009726;28;20050;-84
2021/08/17 09:10:24;;;;;;;4.63;2.45;;;;;;;26.64;33.82;99711.13;5004565;28;20042;-82
2021/08/17 09:12:58;;;;;;;3.95;2.20;;;;;;;26.71;33.97;99708.50;5006434;28;20509;-85
2021/08/17 09:15:36;;;;;;;4.07;2.40;;;;;;;26.68;34.03;99715.06;5008763;28;20505;-85
2021/08/17 09:18:06;;;;;;;3.63;2.40;;;;;;;26.66;34.63;99717.09;5007887;28;20049;-83
2021/08/17 09:20:37;;;;;;;8.15;2.97;;;;;;;26.73;34.86;99709.94;5006565;28;20065;-81
2021/08/17 09:23:26;;;;;;;8.13;2.40;;;;;;;26.84;35.21;99714.75;5006418;28;20041;-93
2021/08/17 09:25:55;;;;;;;5.80;2.33;;;;;;;26.74;33.36;99718.78;5010852;28;20041;-85
2021/08/17 09:28:28;;;;;;;4.65;2.15;;;;;;;26.95;34.01;99715.25;5011144;28;20452;-84
2021/08/17 09:30:59;;;;;;;5.18;2.78;;;;;;;27.11;34.92;99726.53;5029432;28;20041;-82
2021/08/17 09:33:41;;;;;;;5.13;2.78;;;;;;;26.99;33.99;99727.22;5009069;28;20042;-80
2021/08/17 09:36:09;;;;;;;11.65;2.50;;;;;;;27.00;33.87;99731.53;5014595;28;20065;-83
2021/08/17 09:38:36;;;;;;;7.13;2.38;;;;;;;27.04;34.09;99725.59;5014379;28;20065;-83
2021/08/17 09:41:23;;;;;;;3.78;2.42;;;;;;;27.00;33.75;99732.34;5014177;28;20041;-84
2021/08/17 09:44:05;;;;;;;6.43;2.40;;;;;;;27.14;33.16;99742.16;5014750;28;20042;-86
2021/08/17 09:46:33;;;;;;;3.00;1.70;;;;;;;27.12;33.39;99746.06;5014589;28;20492;-83
2021/08/17 09:49:30;;;;;;;4.25;1.67;;;;;;;27.23;32.35;99758.91;5012971;28;20562;-86
2021/08/17 09:52:10;;;;;;;8.20;1.83;;;;;;;26.96;32.50;99754.38;5010769;28;20046;-83
2021/08/17 09:54:40;;;;;;;11.00;2.42;;;;;;;26.89;33.46;99754.28;5028989;28;20038;-84
2021/08/17 09:57:08;;;;;;;4.50;2.08;;;;;;;27.22;34.00;99759.06;5011675;28;20104;-79
2021/08/17 09:59:38;;;;;;;4.80;2.05;;;;;;;26.98;32.37;99747.78;5012519;28;20042;-85
2021/08/17 10:02:07;;;;;;;4.40;1.63;;;;;;;27.38;33.67;99754.25;5006152;28;20658;-85
2021/08/17 10:04:37;;;;;;;2.78;1.83;;;;;;;27.23;33.37;99750.06;5004508;28;20041;-87
2021/08/17 10:07:06;;;;;;;2.90;2.25;;;;;;;27.63;32.93;99751.91;5012727;28;20092;-87
2021/08/17 10:09:36;;;;;;;5.32;2.15;;;;;;;27.58;33.39;99759.69;5008800;28;20038;-87
2021/08/17 10:12:05;;;;;;;2.17;1.70;;;;;;;27.49;32.51;99758.22;5005661;28;20117;-85
2021/08/17 10:14:33;;;;;;;5.93;1.58;;;;;;;27.56;32.99;99756.41;5008934;28;20042;-83
2021/08/17 10:17:00;;;;;;;4.00;3.00;;;;;;;27.39;33.02;99755.09;5012843;28;20064;-82
2021/08/17 10:19:30;;;;;;;6.15;2.05;;;;;;;27.65;33.10;99749.03;5011456;28;20050;-88
2021/08/17 10:21:58;;;;;;;4.20;2.50;;;;;;;27.81;32.72;99747.91;5012955;28;20057;-84
2021/08/17 10:24:51;;;;;;;2.72;2.20;;;;;;;27.76;32.07;99756.53;5011501;28;20042;-84
2021/08/17 10:27:30;;;;;;;3.75;2.40;;;;;;;27.55;32.27;99753.94;5008863;28;20050;-83
2021/08/17 10:30:23;;;;;;;3.70;2.17;;;;;;;27.42;32.57;99747.47;5012533;28;20050;-82
2021/08/17 10:32:54;;;;;;;2.43;1.83;;;;;;;28.02;31.53;99744.22;5006423;28;20042;-80
2021/08/17 10:35:34;;;;;;;2.58;1.92;;;;;;;27.95;31.06;99746.91;5005177;28;20129;-83
2021/08/17 10:38:10;;;;;;;2.97;1.42;;;;;;;27.69;32.16;99745.72;5008516;28;20097;-84
2021/08/17 10:40:52;;;;;;;4.47;2.47;;;;;;;27.69;31.21;99742.22;5008059;28;20405;-86
2021/08/17 10:43:31;;;;;;;5.80;2.22;;;;;;;27.61;32.07;99742.41;5001416;28;20052;-82
2021/08/17 10:46:03;;;;;;;2.45;2.05;;;;;;;27.71;32.63;99750.13;5010066;28;20053;-84
2021/08/17 10:48:45;;;;;;;3.92;1.90;;;;;;;27.52;31.28;99747.09;5011738;28;20046;-86
2021/08/17 10:51:18;;;;;;;8.45;2.63;;;;;;;28.08;31.55;99738.91;5013075;28;20121;-84
2021/08/17 10:53:51;;;;;;;3.20;1.88;;;;;;;28.17;31.97;99732.31;5011564;28;20068;-82
2021/08/17 10:56:19;;;;;;;4.30;2.22;;;;;;;28.12;32.36;99739.31;5008434;28;20038;-83
2021/08/17 10:58:56;;;;;;;4.57;2.28;;;;;;;28.21;31.21;99738.09;5007566;28;20475;-82
2021/08/17 11:01:45;;;;;;;3.75;1.95;;;;;;;27.99;31.35;99740.13;5006508;28;20121;-88
2021/08/17 11:04:12;;;;;;;6.63;1.80;;;;;;;27.93;31.34;99725.69;5009881;28;20053;-90
2021/08/17 11:06:48;;;;;;;6.18;1.58;;;;;;;28.01;30.80;99727.31;5009520;28;20044;-91
2021/08/17 11:09:17;;;;;;;2.20;1.50;;;;;;;28.04;30.73;99729.63;5007473;28;20049;-90
2021/08/17 11:11:46;;;;;;;5.88;1.92;;;;;;;28.03;30.83;99732.50;5008340;28;20037;-86
2021/08/17 11:14:20;;;;;;;3.85;1.67;;;;;;;28.35;30.41;99733.63;5009611;28;20037;-85
2021/08/17 11:16:49;;;;;;;3.47;1.40;;;;;;;28.30;30.46;99725.34;5007709;28;20108;-88
2021/08/17 11:19:18;;;;;;;3.03;1.55;;;;;;;28.11;29.92;99729.63;5008009;28;20038;-83
2021/08/17 11:22:05;;;;;;;2.92;1.83;;;;;;;28.51;30.17;99737.75;5010369;28;20050;-88
2021/08/17 11:24:33;;;;;;;3.80;1.73;;;;;;;28.65;30.78;99734.84;5020760;28;20128;-83
2021/08/17 11:27:02;;;;;;;5.28;1.40;;;;;;;28.64;29.84;99730.53;5008438;28;20030;-81
2021/08/17 11:29:45;;;;;;;4.32;1.58;;;;;;;28.67;30.15;99724.78;5009161;28;20048;-84
2021/08/17 11:32:43;;;;;;;3.30;1.63;;;;;;;28.98;29.74;99717.97;5009856;28;20036;-86
2021/08/17 11:35:12;;;;;;;2.67;2.03;;;;;;;28.88;30.68;99725.59;5025874;28;20042;-87
2021/08/17 11:37:47;;;;;;;3.17;1.48;;;;;;;29.05;29.75;99728.69;5010181;28;20030;-87
2021/08/17 11:40:23;;;;;;;2.42;1.75;;;;;;;28.59;29.37;99719.59;5009825;28;20099;-83